Time;durP1;ratioP1;P1;durP2;ratioP2;P2;SDS_P1;SDS_P2;PMS_P1;PMS_P2;Temp;Humidity;BMP_temperature;BMP_pressure;BME280_temperature;BME280_humidity;BME280_pressure;Samples;Min_cycle;Max_cycle;Signal;HPM_P1;HPM_P2
2023/12/31 00:01:28;;;;;;;;;;;;;;;7.89;83.99;99963.53;4972529;28;19921;-70
2023/12/31 00:04:31;;;;;;;;;;;;;;;7.87;84.55;99952.34;4973309;28;20286;-70
2023/12/31 00:07:34;;;;;;;;;;;;;;;7.77;84.94;99953.72;4970831;28;19969;-70
2023/12/31 00:10:41;;;;;;;;;;;;;;;7.87;84.98;99952.34;4971254;28;19992;-70
2023/12/31 00:13:44;;;;;;;;;;;;;;;7.88;84.71;99946.19;4973462;28;19945;-70
2023/12/31 00:16:48;;;;;;;;;;;;;;;7.74;84.97;99951.25;4975896;28;19936;-70
2023/12/31 00:19:51;;;;;;;;;;;;;;;7.77;84.67;99944.16;4976409;28;20004;-70
2023/12/31 00:22:54;;;;;;;;;;;;;;;7.58;85.62;99941.59;4977022;28;19968;-70
2023/12/31 00:25:57;;;;;;;;;;;;;;;7.66;85.40;99943.84;4974295;28;20440;-70
2023/12/31 00:29:00;;;;;;;;;;;;;;;7.49;86.24;99942.06;4975015;28;19921;-70
2023/12/31 00:32:04;;;;;;;;;;;;;;;7.55;85.71;99933.94;4975122;28;19921;-70
2023/12/31 00:35:07;;;;;;;;;;;;;;;7.64;84.97;99922.25;4976594;28;19957;-70
2023/12/31 00:38:10;;;;;;;;;;;;;;;7.58;85.07;99927.75;4976515;28;19928;-71
2023/12/31 00:41:14;;;;;;;;;;;;;;;7.46;84.92;99918.78;4973850;28;20345;-71
2023/12/31 00:44:17;;;;;;;;;;;;;;;7.43;85.62;99918.94;4973989;28;19924;-71
2023/12/31 00:47:20;;;;;;;;;;;;;;;7.42;85.56;99907.69;4976263;28;19921;-71
2023/12/31 00:50:23;;;;;;;;;;;;;;;7.32;86.19;99910.84;4974852;28;19925;-70
2023/12/31 00:53:27;;;;;;;;;;;;;;;7.24;86.08;99898.19;4964397;28;19968;-70
2023/12/31 00:56:30;;;;;;;;;;;;;;;7.42;85.04;99896.47;4975480;28;20401;-70
2023/12/31 00:59:33;;;;;;;;;;;;;;;7.40;85.05;99887.88;4969462;28;19921;-70
2023/12/31 01:02:37;;;;;;;;;;;;;;;7.47;84.39;99884.09;4973901;28;19948;-71
2023/12/31 01:05:40;;;;;;;;;;;;;;;7.40;84.16;99872.28;4964578;28;20427;-70
2023/12/31 01:08:43;;;;;;;;;;;;;;;7.43;83.66;99866.91;4976788;28;19921;-70
2023/12/31 01:11:46;;;;;;;;;;;;;;;7.41;83.18;99863.56;4976414;28;20296;-70
2023/12/31 01:14:48;;;;;;;;;;;;;;;7.15;83.55;99863.09;4976408;28;20052;-70
2023/12/31 01:17:51;;;;;;;;;;;;;;;7.29;83.68;99856.38;4975433;28;19969;-70
2023/12/31 01:20:54;;;;;;;;;;;;;;;7.01;84.98;99865.50;4964316;28;19920;-70
2023/12/31 01:23:57;;;;;;;;;;;;;;;7.08;84.89;99860.84;4975923;28;19968;-70
2023/12/31 01:27:03;;;;;;;;;;;;;;;7.03;85.30;99847.25;4976162;28;19961;-70
2023/12/31 01:30:10;;;;;;;;;;;;;;;7.06;85.04;99845.34;4964460;28;19936;-70
2023/12/31 01:33:19;;;;;;;;;;;;;;;6.88;85.09;99841.88;4975052;28;19925;-70
2023/12/31 01:36:25;;;;;;;;;;;;;;;7.05;84.43;99830.69;4976369;28;20405;-71
2023/12/31 01:39:27;;;;;;;;;;;;;;;6.96;84.27;99825.91;4963912;28;20401;-71
2023/12/31 01:42:31;;;;;;;;;;;;;;;7.00;84.31;99822.25;4975829;28;19976;-70
2023/12/31 01:45:34;;;;;;;;;;;;;;;6.89;83.84;99822.78;4975767;28;19973;-70
2023/12/31 01:48:39;;;;;;;;;;;;;;;6.84;84.23;99811.75;4975680;28;20004;-70
2023/12/31 01:51:42;;;;;;;;;;;;;;;6.60;84.60;99816.34;4964016;28;19921;-70
2023/12/31 01:54:46;;;;;;;;;;;;;;;6.80;84.49;99824.97;4963771;28;19988;-70
2023/12/31 01:57:50;;;;;;;;;;;;;;;6.87;84.01;99810.75;4974741;28;19921;-70
2023/12/31 02:00:53;;;;;;;;;;;;;;;6.85;83.95;99791.78;4963540;28;19921;-70
2023/12/31 02:03:57;;;;;;;;;;;;;;;6.91;83.84;99781.09;4963394;28;19985;-70
2023/12/31 02:07:00;;;;;;;;;;;;;;;6.83;83.12;99785.81;4975500;28;19921;-70
2023/12/31 02:10:04;;;;;;;;;;;;;;;6.66;84.00;99784.88;4975431;28;20337;-70
2023/12/31 02:13:07;;;;;;;;;;;;;;;6.60;84.48;99792.13;4963187;28;19934;-70
2023/12/31 02:16:15;;;;;;;;;;;;;;;6.65;84.25;99785.81;4963393;28;19961;-70
2023/12/31 02:19:18;;;;;;;;;;;;;;;6.46;84.57;99775.44;4975202;28;20419;-70
2023/12/31 02:22:21;;;;;;;;;;;;;;;6.52;84.37;99762.19;4975152;28;19968;-70
2023/12/31 02:25:26;;;;;;;;;;;;;;;6.17;86.04;99753.44;4975095;28;19925;-70
2023/12/31 02:28:29;;;;;;;;;;;;;;;5.96;86.44;99751.84;4975089;28;19921;-70
2023/12/31 02:31:34;;;;;;;;;;;;;;;6.27;85.66;99739.13;4975004;28;20432;-70
2023/12/31 02:34:37;;;;;;;;;;;;;;;6.16;85.57;99731.00;4975027;28;19968;-70
2023/12/31 02:37:40;;;;;;;;;;;;;;;6.37;84.73;99725.72;4974673;28;19921;-70
2023/12/31 02:45:29;;;;;;;;;;;;;;;6.45;84.10;99695.03;4974760;28;19925;-70
2023/12/31 02:48:32;;;;;;;;;;;;;;;6.36;85.06;99696.31;4962888;28;19973;-69
2023/12/31 02:51:36;;;;;;;;;;;;;;;6.41;84.08;99685.69;4974775;28;20012;-69
2023/12/31 02:54:39;;;;;;;;;;;;;;;6.42;83.96;99672.66;4974651;28;19921;-70
2023/12/31 02:57:43;;;;;;;;;;;;;;;6.46;84.33;99666.38;4962777;28;19942;-70
2023/12/31 03:00:46;;;;;;;;;;;;;;;6.25;84.73;99663.09;4962683;28;20428;-70
2023/12/31 03:03:49;;;;;;;;;;;;;;;6.35;84.29;99667.81;4974548;28;19977;-70
2023/12/31 03:06:52;;;;;;;;;;;;;;;6.31;84.15;99658.50;4962865;28;19941;-70
2023/12/31 03:09:55;;;;;;;;;;;;;;;6.02;85.22;99669.34;4974468;28;20281;-70
2023/12/31 03:12:58;;;;;;;;;;;;;;;6.13;84.75;99663.66;4974354;28;19941;-70
2023/12/31 03:16:05;;;;;;;;;;;;;;;6.25;84.42;99657.03;4974509;28;19925;-70
2023/12/31 03:19:08;;;;;;;;;;;;;;;6.10;84.57;99658.63;4962530;28;20005;-70
2023/12/31 03:22:11;;;;;;;;;;;;;;;5.97;85.23;99653.19;4962409;28;19961;-70
2023/12/31 03:25:14;;;;;;;;;;;;;;;5.72;87.27;99653.44;4974377;28;19952;-70
2023/12/31 03:28:17;;;;;;;;;;;;;;;5.67;86.48;99645.03;4974405;28;20511;-70
2023/12/31 03:31:20;;;;;;;;;;;;;;;5.89;86.41;99639.69;4962402;28;19998;-70
2023/12/31 03:34:24;;;;;;;;;;;;;;;6.05;85.99;99634.63;4962290;28;20385;-70
2023/12/31 03:37:27;;;;;;;;;;;;;;;5.93;85.48;99623.06;4962342;28;19921;-70
2023/12/31 03:40:30;;;;;;;;;;;;;;;6.07;84.87;99617.25;4962289;28;19937;-70
2023/12/31 03:43:33;;;;;;;;;;;;;;;5.72;85.90;99622.31;4973448;28;19969;-70
2023/12/31 03:46:37;;;;;;;;;;;;;;;5.96;85.67;99611.72;4962175;28;19964;-69
2023/12/31 03:49:41;;;;;;;;;;;;;;;5.87;84.61;99609.53;4965824;28;20294;-69
2023/12/31 03:52:44;;;;;;;;;;;;;;;5.79;86.06;99602.94;4965941;28;19940;-69
2023/12/31 03:55:48;;;;;;;;;;;;;;;5.98;86.10;99602.13;4965877;28;20409;-69
2023/12/31 03:58:52;;;;;;;;;;;;;;;5.67;86.74;99598.34;4966224;28;20377;-70
2023/12/31 04:01:58;;;;;;;;;;;;;;;5.73;87.11;99587.69;4977660;28;20353;-69
2023/12/31 04:05:02;;;;;;;;;;;;;;;5.69;86.88;99575.78;4977609;28;20012;-70
2023/12/31 04:08:05;;;;;;;;;;;;;;;5.78;86.71;99564.13;4965639;28;20000;-70
2023/12/31 04:11:08;;;;;;;;;;;;;;;5.83;85.59;99554.34;4965976;28;19945;-70
2023/12/31 04:14:12;;;;;;;;;;;;;;;5.68;86.17;99553.34;4965416;28;20345;-70
2023/12/31 04:17:15;;;;;;;;;;;;;;;5.92;86.00;99553.06;4977715;28;20286;-70
2023/12/31 04:20:18;;;;;;;;;;;;;;;5.99;85.37;99526.78;4977415;28;20440;-70
2023/12/31 04:23:21;;;;;;;;;;;;;;;5.93;84.94;99521.03;4977615;28;19957;-70
2023/12/31 04:26:24;;;;;;;;;;;;;;;6.04;84.51;99530.00;4977325;28;19925;-70
2023/12/31 04:29:27;;;;;;;;;;;;;;;5.91;85.12;99517.69;4977299;28;20030;-70
2023/12/31 04:32:30;;;;;;;;;;;;;;;5.98;84.71;99512.13;4976316;28;19969;-70
2023/12/31 04:35:33;;;;;;;;;;;;;;;5.66;86.41;99513.66;4977159;28;19921;-70
2023/12/31 04:38:37;;;;;;;;;;;;;;;5.80;85.90;99500.84;4977489;28;19921;-70
2023/12/31 04:41:40;;;;;;;;;;;;;;;5.98;85.12;99495.72;4976020;28;20000;-70
2023/12/31 04:44:43;;;;;;;;;;;;;;;5.93;85.27;99485.56;4976922;28;20333;-70
2023/12/31 04:47:46;;;;;;;;;;;;;;;5.92;85.56;99481.25;4976896;28;19921;-70
2023/12/31 04:50:50;;;;;;;;;;;;;;;5.88;85.49;99481.50;4976669;28;19960;-70
2023/12/31 04:53:54;;;;;;;;;;;;;;;5.71;86.23;99480.59;4976861;28;19920;-70
2023/12/31 04:56:57;;;;;;;;;;;;;;;5.98;85.68;99467.19;4976808;28;19920;-69
2023/12/31 05:00:02;;;;;;;;;;;;;;;5.84;86.03;99470.44;4964233;28;19937;-70
2023/12/31 05:03:06;;;;;;;;;;;;;;;5.79;85.95;99462.88;4964730;28;19924;-70
2023/12/31 05:06:09;;;;;;;;;;;;;;;5.98;85.50;99462.00;4976589;28;20293;-70
2023/12/31 05:09:12;;;;;;;;;;;;;;;6.09;85.24;99444.09;4976559;28;19921;-70
2023/12/31 05:12:15;;;;;;;;;;;;;;;5.90;85.67;99443.34;4976324;28;19925;-70
2023/12/31 05:15:19;;;;;;;;;;;;;;;5.87;86.24;99449.53;4976497;28;19941;-70
2023/12/31 05:18:21;;;;;;;;;;;;;;;5.97;86.45;99436.97;4976360;28;20381;-70
2023/12/31 05:21:24;;;;;;;;;;;;;;;5.89;85.89;99436.47;4976352;28;19978;-70
2023/12/31 05:24:28;;;;;;;;;;;;;;;6.03;85.93;99439.22;4976210;28;19969;-70
2023/12/31 05:27:31;;;;;;;;;;;;;;;6.07;86.37;99430.38;4976242;28;19921;-69
2023/12/31 05:30:33;;;;;;;;;;;;;;;6.09;86.93;99432.88;4976368;28;19921;-69
2023/12/31 05:33:36;;;;;;;;;;;;;;;6.13;86.34;99422.28;4976189;28;19969;-70
2023/12/31 05:36:39;;;;;;;;;;;;;;;6.31;86.20;99417.88;4975981;28;20285;-69
2023/12/31 05:39:42;;;;;;;;;;;;;;;6.41;85.30;99413.03;4975986;28;20298;-70
2023/12/31 05:42:45;;;;;;;;;;;;;;;6.07;86.48;99407.03;4975532;28;20392;-70
2023/12/31 05:45:48;;;;;;;;;;;;;;;6.15;87.15;99404.88;4975804;28;20053;-70
2023/12/31 05:48:51;;;;;;;;;;;;;;;6.04;87.78;99405.44;4963814;28;19921;-70
2023/12/31 05:51:54;;;;;;;;;;;;;;;6.07;88.12;99404.44;4975795;28;20012;-70
2023/12/31 05:54:57;;;;;;;;;;;;;;;6.19;87.66;99402.94;4975700;28;19921;-71
2023/12/31 05:58:00;;;;;;;;;;;;;;;6.36;87.29;99400.31;4975038;28;19948;-70
2023/12/31 06:01:03;;;;;;;;;;;;;;;6.37;87.19;99385.56;4974701;28;19925;-70
2023/12/31 06:04:06;;;;;;;;;;;;;;;6.23;87.55;99389.75;4975710;28;19924;-70
2023/12/31 06:07:10;;;;;;;;;;;;;;;6.45;87.31;99389.44;4975425;28;19922;-70
2023/12/31 06:10:14;;;;;;;;;;;;;;;6.33;88.06;99389.25;4975271;28;19921;-70
2023/12/31 06:13:17;;;;;;;;;;;;;;;6.43;87.96;99390.44;4975345;28;19972;-70
2023/12/31 06:16:21;;;;;;;;;;;;;;;6.60;87.27;99402.53;4975249;28;19920;-70
2023/12/31 06:19:24;;;;;;;;;;;;;;;6.48;87.39;99394.47;4975243;28;19977;-70
2023/12/31 06:22:27;;;;;;;;;;;;;;;6.42;87.42;99389.63;4975224;28;19921;-70
2023/12/31 06:25:30;;;;;;;;;;;;;;;6.63;87.48;99382.41;4975173;28;19924;-70
2023/12/31 06:28:33;;;;;;;;;;;;;;;6.62;86.90;99380.75;4963232;28;19921;-70
2023/12/31 06:31:36;;;;;;;;;;;;;;;6.70;87.12;99378.56;4963270;28;19921;-70
2023/12/31 06:34:40;;;;;;;;;;;;;;;6.57;87.65;99387.94;4975313;28;19936;-70
2023/12/31 06:37:43;;;;;;;;;;;;;;;6.69;87.23;99371.69;4974996;28;19925;-71
2023/12/31 06:40:46;;;;;;;;;;;;;;;6.81;87.16;99364.16;4974979;28;19921;-71
2023/12/31 06:43:50;;;;;;;;;;;;;;;6.63;88.29;99366.00;4974720;28;20436;-69
2023/12/31 06:46:53;;;;;;;;;;;;;;;6.67;88.14;99367.53;4975003;28;20016;-70
2023/12/31 06:49:55;;;;;;;;;;;;;;;6.80;87.94;99367.69;4974772;28;19927;-70
2023/12/31 06:52:58;;;;;;;;;;;;;;;6.78;88.48;99364.31;4974689;28;19960;-70
2023/12/31 06:56:07;;;;;;;;;;;;;;;6.77;88.46;99363.50;4974667;28;19936;-70
2023/12/31 06:59:10;;;;;;;;;;;;;;;6.71;88.60;99354.28;4962928;28;19964;-70
2023/12/31 07:02:13;;;;;;;;;;;;;;;6.80;88.32;99359.88;4974577;28;19921;-71
2023/12/31 07:05:16;;;;;;;;;;;;;;;6.82;89.13;99352.81;4974282;28;20379;-71
2023/12/31 07:08:19;;;;;;;;;;;;;;;6.85;89.18;99343.09;4974495;28;20282;-71
2023/12/31 07:11:22;;;;;;;;;;;;;;;6.81;89.54;99349.41;4974423;28;19921;-71
2023/12/31 07:14:26;;;;;;;;;;;;;;;6.92;89.61;99343.59;4974668;28;20091;-71
2023/12/31 07:17:30;;;;;;;;;;;;;;;6.95;90.16;99338.22;4974610;28;20057;-71
2023/12/31 07:20:32;;;;;;;;;;;;;;;6.96;90.81;99334.72;4974479;28;19921;-71
2023/12/31 07:23:36;;;;;;;;;;;;;;;7.17;90.45;99332.66;4977755;28;19920;-71
2023/12/31 07:26:39;;;;;;;;;;;;;;;7.36;89.78;99335.88;4977206;28;19972;-72
2023/12/31 07:29:42;;;;;;;;;;;;;;;7.42;90.30;99313.88;4976554;28;20422;-70
2023/12/31 07:32:45;;;;;;;;;;;;;;;7.40;90.35;99313.97;4976601;28;20002;-71
2023/12/31 07:35:48;;;;;;;;;;;;;;;7.51;90.84;99312.50;4976307;28;19921;-71
2023/12/31 07:38:52;;;;;;;;;;;;;;;7.65;90.65;99310.75;4976206;28;19925;-71
2023/12/31 07:41:55;;;;;;;;;;;;;;;7.82;89.86;99308.91;4976028;28;19960;-71
2023/12/31 07:44:58;;;;;;;;;;;;;;;7.73;90.28;99302.50;4976291;28;19925;-71
2023/12/31 07:48:01;;;;;;;;;;;;;;;7.77;90.01;99300.53;4976875;28;19993;-71
2023/12/31 07:51:08;;;;;;;;;;;;;;;7.86;87.73;99286.97;4976479;28;19921;-72
2023/12/31 07:54:13;;;;;;;;;;;;;;;7.95;87.48;99288.19;4976748;28;20365;-72
2023/12/31 07:57:17;;;;;;;;;;;;;;;8.01;87.06;99287.78;4977202;28;20001;-72
2023/12/31 08:00:20;;;;;;;;;;;;;;;8.12;87.11;99291.41;4976708;28;20412;-72
2023/12/31 08:03:29;;;;;;;;;;;;;;;8.23;86.16;99284.69;4962959;28;19924;-72
2023/12/31 08:06:34;;;;;;;;;;;;;;;8.44;85.28;99287.75;4977163;28;19945;-71
2023/12/31 08:10:02;;;;;;;;;;;;;;;8.40;84.04;99281.91;4976762;28;20005;-72
2023/12/31 08:13:05;;;;;;;;;;;;;;;8.57;84.32;99271.25;4960458;28;20013;-71
2023/12/31 08:16:08;;;;;;;;;;;;;;;8.68;83.69;99267.09;4977466;28;19921;-72
2023/12/31 08:19:11;;;;;;;;;;;;;;;8.65;82.95;99264.69;4977333;28;20397;-71
2023/12/31 08:22:15;;;;;;;;;;;;;;;8.64;81.66;99258.66;4976842;28;19921;-71
2023/12/31 08:25:19;;;;;;;;;;;;;;;8.64;82.75;99247.41;4977098;28;19976;-71
2023/12/31 08:28:22;;;;;;;;;;;;;;;8.71;81.82;99243.47;4977101;28;20005;-71
2023/12/31 08:31:26;;;;;;;;;;;;;;;8.77;80.97;99249.09;4976698;28;19921;-74
2023/12/31 08:34:29;;;;;;;;;;;;;;;8.87;81.18;99251.97;4975998;28;19969;-72
2023/12/31 08:37:32;;;;;;;;;;;;;;;8.97;80.06;99231.34;4977154;28;19921;-71
2023/12/31 08:40:36;;;;;;;;;;;;;;;9.17;80.57;99240.44;4976940;28;20334;-70
2023/12/31 08:43:43;;;;;;;;;;;;;;;9.18;80.39;99231.69;4964059;28;19921;-70
2023/12/31 08:46:50;;;;;;;;;;;;;;;9.22;80.07;99247.03;4976284;28;19980;-70
2023/12/31 08:49:53;;;;;;;;;;;;;;;9.27;79.95;99241.50;4975214;28;19997;-70
2023/12/31 08:52:56;;;;;;;;;;;;;;;9.32;79.26;99229.81;4975675;28;20286;-71
2023/12/31 08:55:59;;;;;;;;;;;;;;;9.35;79.83;99223.56;4974565;28;19969;-71
2023/12/31 08:59:02;;;;;;;;;;;;;;;9.32;79.12;99219.38;4973437;28;19960;-72
2023/12/31 09:02:05;;;;;;;;;;;;;;;9.23;79.29;99216.56;4974169;28;19965;-73
2023/12/31 09:05:09;;;;;;;;;;;;;;;9.24;78.88;99226.06;4974562;28;20392;-71
2023/12/31 09:08:13;;;;;;;;;;;;;;;9.32;79.45;99219.38;4974898;28;20060;-71
2023/12/31 09:11:16;;;;;;;;;;;;;;;9.39;78.94;99208.53;4975548;28;19929;-72
2023/12/31 09:14:19;;;;;;;;;;;;;;;9.34;79.02;99201.00;4949005;28;19940;-71
2023/12/31 09:17:22;;;;;;;;;;;;;;;9.41;78.93;99201.41;4943691;28;19922;-71
2023/12/31 09:20:25;;;;;;;;;;;;;;;9.44;78.57;99196.81;4944467;29;20005;-71
2023/12/31 09:23:28;;;;;;;;;;;;;;;9.54;78.51;99208.31;4946073;28;19977;-71
2023/12/31 09:26:32;;;;;;;;;;;;;;;9.43;77.50;99200.38;4945777;28;20327;-70
2023/12/31 09:29:35;;;;;;;;;;;;;;;9.47;77.27;99214.03;4947140;28;20104;-74
2023/12/31 09:32:38;;;;;;;;;;;;;;;9.55;76.93;99215.19;4947534;28;20023;-70
2023/12/31 09:35:43;;;;;;;;;;;;;;;9.50;75.75;99219.88;4942502;28;20029;-69
2023/12/31 09:38:47;;;;;;;;;;;;;;;9.53;76.31;99222.28;4946128;29;19970;-72
2023/12/31 09:41:52;;;;;;;;;;;;;;;9.43;76.75;99226.47;4942041;28;19921;-71
2023/12/31 09:44:55;;;;;;;;;;;;;;;9.60;76.77;99227.09;4945188;29;19933;-73
2023/12/31 09:48:02;;;;;;;;;;;;;;;9.52;77.39;99225.84;4947925;29;19921;-71
2023/12/31 09:51:05;;;;;;;;;;;;;;;9.68;77.06;99219.56;4945611;29;19961;-72
2023/12/31 09:54:08;;;;;;;;;;;;;;;9.71;77.69;99220.19;4946724;29;19964;-73
2023/12/31 09:57:12;;;;;;;;;;;;;;;9.84;78.30;99219.34;4946260;29;19951;-75
2023/12/31 10:00:16;;;;;;;;;;;;;;;9.90;77.87;99208.47;4917314;29;20295;-74
2023/12/31 10:03:18;;;;;;;;;;;;;;;9.82;77.74;99211.59;4917518;29;20299;-74
2023/12/31 10:06:22;;;;;;;;;;;;;;;9.85;78.74;99200.13;4953493;28;20366;-72
2023/12/31 10:09:27;;;;;;;;;;;;;;;9.79;79.49;99211.81;4955842;28;20305;-76
2023/12/31 10:12:30;;;;;;;;;;;;;;;9.90;79.66;99208.47;4955767;28;19925;-72
2023/12/31 10:15:33;;;;;;;;;;;;;;;9.79;79.88;99201.38;4939594;29;20034;-72
2023/12/31 10:18:36;;;;;;;;;;;;;;;9.69;80.31;99195.13;4936406;29;20346;-74
2023/12/31 10:21:41;;;;;;;;;;;;;;;9.82;79.80;99195.94;4936604;29;20461;-72
2023/12/31 10:24:44;;;;;;;;;;;;;;;9.78;80.36;99195.31;4937467;29;19925;-72
2023/12/31 10:27:47;;;;;;;;;;;;;;;9.79;80.90;99188.31;4946420;28;19969;-75
2023/12/31 10:30:50;;;;;;;;;;;;;;;9.80;81.19;99197.84;4947003;29;20355;-72
2023/12/31 10:33:53;;;;;;;;;;;;;;;9.97;83.42;99189.63;4943506;29;19921;-73
2023/12/31 10:37:03;;;;;;;;;;;;;;;10.10;81.72;99188.78;4939583;29;20407;-76
2023/12/31 10:40:19;;;;;;;;;;;;;;;10.20;82.62;99174.09;4946706;29;20314;-72
2023/12/31 10:43:23;;;;;;;;;;;;;;;10.31;81.99;99183.81;4945925;29;20389;-72
2023/12/31 10:46:27;;;;;;;;;;;;;;;10.35;81.23;99190.47;4947510;29;19925;-71
2023/12/31 10:49:32;;;;;;;;;;;;;;;10.41;80.99;99190.03;4930134;29;19970;-71
2023/12/31 10:52:35;;;;;;;;;;;;;;;10.25;80.83;99185.06;4925814;29;20118;-71
2023/12/31 10:55:40;;;;;;;;;;;;;;;10.07;80.41;99163.69;4925422;29;19922;-72
2023/12/31 10:58:45;;;;;;;;;;;;;;;10.22;79.74;99148.72;4928587;29;19978;-75
2023/12/31 11:01:48;;;;;;;;;;;;;;;10.40;79.45;99144.78;4942378;29;20066;-73
2023/12/31 11:04:52;;;;;;;;;;;;;;;10.47;78.49;99153.84;4943861;29;20282;-74
2023/12/31 11:07:56;;;;;;;;;;;;;;;10.39;77.74;99145.72;4939228;28;19921;-73
2023/12/31 11:10:59;;;;;;;;;;;;;;;10.42;78.02;99132.44;4941331;29;19922;-74
2023/12/31 11:14:04;;;;;;;;;;;;;;;10.54;77.09;99141.16;4960019;28;20334;-72
2023/12/31 11:17:16;;;;;;;;;;;;;;;10.47;77.47;99146.00;4966716;28;19921;-73
2023/12/31 11:20:38;;;;;;;;;;;;;;;10.42;77.55;99129.81;4969819;28;19921;-72
2023/12/31 11:24:04;;;;;;;;;;;;;;;10.44;76.74;99134.94;4969272;28;20350;-76
2023/12/31 11:27:07;;;;;;;;;;;;;;;10.20;76.19;99148.81;4968597;28;19925;-76
2023/12/31 11:30:11;;;;;;;;;;;;;;;10.05;76.75;99138.63;4966676;28;20001;-73
2023/12/31 11:33:15;;;;;;;;;;;;;;;9.98;76.22;99131.25;4968766;28;20660;-74
2023/12/31 11:36:19;;;;;;;;;;;;;;;10.07;75.98;99121.09;4971294;28;19981;-73
2023/12/31 11:39:24;;;;;;;;;;;;;;;10.10;75.79;99108.63;4967458;28;19970;-73
2023/12/31 11:42:29;;;;;;;;;;;;;;;10.30;75.34;99132.50;4970440;28;19929;-74
2023/12/31 11:45:46;;;;;;;;;;;;;;;10.29;73.76;99129.06;4971764;28;19925;-75
2023/12/31 11:48:55;;;;;;;;;;;;;;;10.21;73.75;99113.06;4972960;28;19969;-71
2023/12/31 11:52:01;;;;;;;;;;;;;;;10.15;73.14;99114.38;4969990;28;19921;-75
2023/12/31 11:55:12;;;;;;;;;;;;;;;10.10;73.24;99113.03;4969766;28;19924;-77
2023/12/31 11:58:17;;;;;;;;;;;;;;;10.14;72.61;99112.69;4971762;28;20425;-75
2023/12/31 12:01:21;;;;;;;;;;;;;;;10.11;72.77;99101.63;4966538;28;20417;-77
2023/12/31 12:04:29;;;;;;;;;;;;;;;10.29;72.19;99100.31;4962558;28;19984;-76
2023/12/31 12:07:35;;;;;;;;;;;;;;;10.20;71.32;99111.41;4964324;28;19922;-77
2023/12/31 12:10:40;;;;;;;;;;;;;;;10.04;71.92;99093.41;4965541;28;19921;-75
2023/12/31 12:13:44;;;;;;;;;;;;;;;10.25;71.96;99104.91;4978533;28;19925;-77
2023/12/31 12:16:49;;;;;;;;;;;;;;;10.28;71.36;99093.44;4984707;28;20448;-78
2023/12/31 12:19:54;;;;;;;;;;;;;;;10.30;70.72;99096.75;4985157;28;19969;-81
2023/12/31 12:23:01;;;;;;;;;;;;;;;10.43;70.72;99094.91;4976170;28;19925;-77
2023/12/31 12:26:05;;;;;;;;;;;;;;;10.30;69.50;99107.19;4976066;28;19945;-75
2023/12/31 12:29:08;;;;;;;;;;;;;;;10.27;69.45;99107.41;4976706;28;19921;-76
2023/12/31 12:32:17;;;;;;;;;;;;;;;10.21;70.24;99120.91;4976500;28;19921;-75
2023/12/31 12:35:21;;;;;;;;;;;;;;;10.12;69.73;99111.16;4976749;28;19968;-77
2023/12/31 12:38:25;;;;;;;;;;;;;;;10.22;69.72;99115.56;4976847;28;20341;-76
2023/12/31 12:41:29;;;;;;;;;;;;;;;10.07;69.55;99127.13;4976312;28;19925;-77
2023/12/31 12:45:05;;;;;;;;;;;;;;;10.04;69.06;99118.69;4975556;28;19956;-76
2023/12/31 12:48:59;;;;;;;;;;;;;;;9.97;69.57;99121.75;4976235;28;20018;-76
2023/12/31 12:52:03;;;;;;;;;;;;;;;10.05;69.23;99121.22;4976116;28;19920;-76
2023/12/31 12:55:06;;;;;;;;;;;;;;;10.06;69.19;99127.25;4976320;28;19977;-75
2023/12/31 12:58:09;;;;;;;;;;;;;;;10.16;68.42;99120.41;4964015;28;19944;-76
2023/12/31 13:01:13;;;;;;;;;;;;;;;9.99;68.84;99125.09;4975890;28;20322;-76
2023/12/31 13:04:16;;;;;;;;;;;;;;;10.07;68.47;99124.53;4976053;28;19924;-76
2023/12/31 13:07:20;;;;;;;;;;;;;;;10.17;67.83;99117.69;4976072;28;19974;-76
2023/12/31 13:10:23;;;;;;;;;;;;;;;10.12;67.59;99119.81;4975722;28;19920;-76
2023/12/31 13:13:27;;;;;;;;;;;;;;;10.19;67.57;99133.25;4975610;28;19924;-75
2023/12/31 13:16:30;;;;;;;;;;;;;;;10.07;66.93;99134.16;4975580;28;19925;-73
2023/12/31 13:19:33;;;;;;;;;;;;;;;10.10;66.71;99146.97;4975280;28;19920;-75
2023/12/31 13:22:37;;;;;;;;;;;;;;;10.02;66.99;99151.00;4963293;28;19930;-76
2023/12/31 13:25:40;;;;;;;;;;;;;;;9.98;67.19;99159.97;4963481;28;20021;-74
2023/12/31 13:28:43;;;;;;;;;;;;;;;10.08;66.81;99169.75;4975335;28;19992;-72
2023/12/31 13:31:46;;;;;;;;;;;;;;;10.13;66.31;99167.66;4975304;28;19924;-72
2023/12/31 13:34:49;;;;;;;;;;;;;;;10.07;65.48;99168.09;4975243;28;19921;-76
2023/12/31 13:37:52;;;;;;;;;;;;;;;10.00;65.48;99158.09;4975659;28;20309;-76
2023/12/31 13:40:56;;;;;;;;;;;;;;;10.03;65.35;99157.03;4976033;28;19947;-71
2023/12/31 13:44:00;;;;;;;;;;;;;;;9.98;64.85;99178.25;4975131;28;19961;-76
2023/12/31 13:47:03;;;;;;;;;;;;;;;10.07;65.21;99186.38;4971724;28;20437;-75
2023/12/31 13:50:07;;;;;;;;;;;;;;;10.12;64.73;99189.50;4971887;28;19932;-72
2023/12/31 13:53:11;;;;;;;;;;;;;;;10.02;63.69;99184.09;4972029;28;19977;-74
2023/12/31 13:56:14;;;;;;;;;;;;;;;9.89;62.99;99184.16;4972220;28;19921;-76
2023/12/31 13:59:17;;;;;;;;;;;;;;;9.97;63.31;99180.97;4973398;28;19996;-76
2023/12/31 14:02:20;;;;;;;;;;;;;;;10.09;63.20;99192.34;4974643;28;20337;-71
2023/12/31 14:05:26;;;;;;;;;;;;;;;10.23;62.67;99194.78;4974613;28;19965;-82
2023/12/31 14:08:30;;;;;;;;;;;;;;;10.18;62.33;99200.34;4974937;28;20012;-73
2023/12/31 14:11:33;;;;;;;;;;;;;;;10.02;62.02;99211.06;4974802;28;19944;-76
2023/12/31 14:14:36;;;;;;;;;;;;;;;10.01;62.57;99196.31;4974311;28;19972;-72
2023/12/31 14:17:39;;;;;;;;;;;;;;;9.97;62.72;99184.41;4974309;28;20300;-73
2023/12/31 14:20:42;;;;;;;;;;;;;;;10.06;62.80;99201.22;4974572;28;19960;-74
2023/12/31 14:23:46;;;;;;;;;;;;;;;10.13;63.06;99209.44;4974473;28;19920;-73
2023/12/31 14:26:53;;;;;;;;;;;;;;;10.13;62.91;99206.84;4962610;28;19925;-82
2023/12/31 14:29:56;;;;;;;;;;;;;;;10.04;63.43;99207.50;4962078;28;19925;-76
2023/12/31 14:32:59;;;;;;;;;;;;;;;10.16;62.77;99209.22;4973442;28;20393;-73
2023/12/31 14:36:03;;;;;;;;;;;;;;;10.19;62.92;99217.69;4974325;28;20060;-75
2023/12/31 14:39:07;;;;;;;;;;;;;;;10.18;63.36;99221.25;4962243;28;20016;-71
2023/12/31 14:42:10;;;;;;;;;;;;;;;10.37;62.82;99238.22;4973883;28;20277;-72
2023/12/31 14:45:14;;;;;;;;;;;;;;;10.11;62.02;99227.81;4973769;28;19964;-74
2023/12/31 14:48:17;;;;;;;;;;;;;;;10.06;62.16;99234.34;4973843;28;20302;-72
2023/12/31 14:51:21;;;;;;;;;;;;;;;10.21;61.81;99228.00;4973993;28;19980;-72
2023/12/31 14:54:26;;;;;;;;;;;;;;;10.25;61.38;99229.47;4974269;28;19977;-74
2023/12/31 14:57:29;;;;;;;;;;;;;;;10.05;61.25;99240.47;4973849;28;19921;-73
2023/12/31 15:00:33;;;;;;;;;;;;;;;10.21;61.99;99230.63;4973339;28;19956;-72
2023/12/31 15:03:36;;;;;;;;;;;;;;;10.20;61.08;99218.50;4972847;28;19969;-72
2023/12/31 15:06:41;;;;;;;;;;;;;;;10.07;61.95;99215.09;4972726;28;19925;-72
2023/12/31 15:09:44;;;;;;;;;;;;;;;10.19;62.27;99224.69;4973374;28;19961;-72
2023/12/31 15:12:51;;;;;;;;;;;;;;;10.10;62.22;99238.38;4962056;28;19929;-72
2023/12/31 15:15:55;;;;;;;;;;;;;;;10.07;63.08;99236.00;4961727;28;19936;-72
2023/12/31 15:18:59;;;;;;;;;;;;;;;10.08;62.84;99229.81;4973666;28;19963;-72
2023/12/31 15:22:02;;;;;;;;;;;;;;;10.03;63.21;99224.94;4973587;28;19960;-72
2023/12/31 15:25:08;;;;;;;;;;;;;;;9.87;63.17;99234.78;4961507;28;20348;-72
2023/12/31 15:28:15;;;;;;;;;;;;;;;9.90;62.96;99240.63;4961745;28;19921;-72
2023/12/31 15:31:21;;;;;;;;;;;;;;;9.89;63.52;99244.19;4973628;28;19929;-86
2023/12/31 15:34:39;;;;;;;;;;;;;;;9.89;63.75;99238.97;4973105;28;19968;-72
2023/12/31 15:37:45;;;;;;;;;;;;;;;9.96;63.97;99242.81;4961350;28;19921;-72
2023/12/31 15:40:51;;;;;;;;;;;;;;;9.99;63.98;99252.22;4973705;28;19924;-72
2023/12/31 15:44:21;;;;;;;;;;;;;;;9.96;64.11;99261.09;4966503;28;19956;-73
2023/12/31 15:47:29;;;;;;;;;;;;;;;9.95;64.85;99269.84;4977183;28;19925;-73
2023/12/31 15:50:33;;;;;;;;;;;;;;;9.83;65.13;99270.72;4965880;28;19976;-73
2023/12/31 15:53:42;;;;;;;;;;;;;;;9.81;65.38;99269.16;4977959;28;19920;-73
2023/12/31 15:56:45;;;;;;;;;;;;;;;9.80;65.59;99289.22;4975212;28;19960;-73
2023/12/31 15:59:50;;;;;;;;;;;;;;;9.79;66.24;99295.34;4976608;28;19920;-70
2023/12/31 16:02:53;;;;;;;;;;;;;;;9.74;66.24;99297.47;4976937;28;19921;-72
2023/12/31 16:05:57;;;;;;;;;;;;;;;9.76;66.85;99301.63;4976513;28;19929;-73
2023/12/31 16:09:00;;;;;;;;;;;;;;;9.80;66.45;99307.47;4977289;28;19941;-72
2023/12/31 16:12:04;;;;;;;;;;;;;;;9.85;66.85;99312.38;4977625;28;20012;-74
2023/12/31 16:15:08;;;;;;;;;;;;;;;9.74;66.60;99303.50;4977451;28;19973;-73